Time;durP1;ratioP1;P1;durP2;ratioP2;P2;SDS_P1;SDS_P2;PMS_P1;PMS_P2;Temp;Humidity;BMP_temperature;BMP_pressure;BME280_temperature;BME280_humidity;BME280_pressure;Samples;Min_cycle;Max_cycle;Signal;HPM_P1;HPM_P2
2023/03/05 00:00:26;;;;;;;12.90;5.80;;;;;;;1.08;92.63;97621.74;52423;1254;1018675;-77
2023/03/05 00:03:13;;;;;;;16.90;9.30;;;;;;;0.97;93.43;97620.16;52437;1254;1075824;-77
2023/03/05 00:05:39;;;;;;;15.60;7.60;;;;;;;0.97;94.07;97619.53;52388;1254;1015754;-77
2023/03/05 00:08:06;;;;;;;22.60;11.80;;;;;;;0.92;95.19;97620.55;52306;1254;1070838;-77
2023/03/05 00:10:33;;;;;;;27.20;13.20;;;;;;;0.93;95.70;97619.35;52490;1254;1015625;-77
2023/03/05 00:12:59;;;;;;;16.00;8.10;;;;;;;0.99;93.63;97618.35;52434;1257;1073879;-77
2023/03/05 00:15:26;;;;;;;22.20;11.00;;;;;;;1.01;96.08;97619.56;52401;1254;1016362;-77
2023/03/05 00:17:53;;;;;;;19.00;9.20;;;;;;;0.88;98.92;97621.42;52482;1259;1051279;-78
2023/03/05 00:20:19;;;;;;;20.50;10.30;;;;;;;0.94;98.06;97623.31;52455;1257;1017958;-77
2023/03/05 00:22:46;;;;;;;37.70;15.80;;;;;;;0.91;98.85;97618.39;52432;1254;1061416;-77
2023/03/05 00:25:13;;;;;;;37.50;17.80;;;;;;;0.92;99.14;97623.70;52548;1254;1016100;-77
2023/03/05 00:27:39;;;;;;;29.40;14.60;;;;;;;0.91;99.71;97620.80;52504;1254;1074240;-77
2023/03/05 00:30:07;;;;;;;22.60;9.80;;;;;;;0.93;98.71;97619.42;52544;1254;1016430;-77
2023/03/05 00:32:35;;;;;;;35.90;16.90;;;;;;;0.95;99.58;97615.64;52594;1254;1068751;-77
2023/03/05 00:35:01;;;;;;;26.40;12.20;;;;;;;0.97;99.79;97608.41;52534;1253;1016416;-77
2023/03/05 00:37:28;;;;;;;27.10;12.70;;;;;;;1.03;99.00;97602.20;52492;1254;1073181;-77
2023/03/05 00:39:55;;;;;;;25.60;11.70;;;;;;;1.04;100.00;97603.48;52543;1256;1016461;-77
2023/03/05 00:42:21;;;;;;;21.10;12.70;;;;;;;1.06;100.00;97597.60;52431;1254;1054704;-77
2023/03/05 00:44:48;;;;;;;28.00;13.80;;;;;;;1.08;100.00;97593.48;52430;1257;1016080;-77
2023/03/05 00:47:17;;;;;;;29.50;13.70;;;;;;;1.11;100.00;97590.45;52550;1253;1058400;-77
2023/03/05 00:49:44;;;;;;;40.00;20.60;;;;;;;1.12;100.00;97589.39;52504;1256;1016559;-77
2023/03/05 00:52:11;;;;;;;33.30;16.00;;;;;;;1.18;100.00;97588.80;52556;1254;1016223;-77
2023/03/05 00:54:37;;;;;;;28.70;14.20;;;;;;;1.25;100.00;97586.33;52529;1254;1075942;-77
2023/03/05 00:57:04;;;;;;;29.70;15.20;;;;;;;1.31;99.26;97585.87;52473;1254;1016115;-77
2023/03/05 00:59:31;;;;;;;22.50;10.70;;;;;;;1.32;99.89;97581.36;52446;1259;1072191;-77
2023/03/05 01:01:57;;;;;;;21.80;10.80;;;;;;;1.29;100.00;97588.27;52405;1254;1015918;-77
2023/03/05 01:04:24;;;;;;;21.10;11.40;;;;;;;1.24;100.00;97584.20;52444;1256;1073243;-77
2023/03/05 01:06:51;;;;;;;24.80;10.90;;;;;;;1.21;100.00;97584.10;52448;1254;1016167;-77
2023/03/05 01:09:18;;;;;;;18.70;9.80;;;;;;;1.20;100.00;97582.68;52462;1259;1051009;-78
2023/03/05 01:11:44;;;;;;;19.90;9.70;;;;;;;1.21;99.83;97581.16;52484;1254;1015812;-77
2023/03/05 01:14:11;;;;;;;16.60;8.50;;;;;;;1.24;99.55;97577.39;52517;1258;1061118;-77
2023/03/05 01:16:37;;;;;;;23.40;11.10;;;;;;;1.27;98.87;97573.81;52505;1254;1016088;-77
2023/03/05 01:19:04;;;;;;;17.00;9.60;;;;;;;1.28;99.58;97573.11;52460;1258;1075021;-77
2023/03/05 01:21:31;;;;;;;16.70;8.80;;;;;;;1.23;99.97;97569.94;52475;1254;1016191;-77
2023/03/05 01:23:57;;;;;;;18.30;8.70;;;;;;;1.17;99.70;97570.27;52462;1254;1072226;-77
2023/03/05 01:26:24;;;;;;;19.70;9.00;;;;;;;1.12;100.00;97562.90;52468;1254;1016100;-76
2023/03/05 01:28:50;;;;;;;17.90;9.60;;;;;;;1.05;100.00;97560.58;52504;1256;1073151;-77
2023/03/05 01:31:17;;;;;;;21.70;8.70;;;;;;;0.98;100.00;97561.48;52504;1256;1018307;-77
2023/03/05 01:33:44;;;;;;;17.20;9.90;;;;;;;0.96;100.00;97560.49;52510;1256;1050823;-77
2023/03/05 01:36:14;;;;;;;14.60;7.60;;;;;;;0.91;100.00;97558.54;52492;1252;1016293;-78
2023/03/05 01:38:42;;;;;;;16.80;7.90;;;;;;;0.89;100.00;97558.95;52619;1256;1058724;-78
2023/03/05 01:41:09;;;;;;;14.50;7.50;;;;;;;0.91;100.00;97558.42;52525;1257;1016088;-77
2023/03/05 01:43:36;;;;;;;21.70;10.20;;;;;;;0.89;100.00;97561.80;52520;1257;1077782;-77
2023/03/05 01:46:11;;;;;;;42.80;8.60;;;;;;;0.82;100.00;97565.58;52470;1256;1016164;-77
2023/03/05 01:48:39;;;;;;;16.90;8.00;;;;;;;0.77;100.00;97563.88;52487;1254;1069022;-77
2023/03/05 01:51:06;;;;;;;15.70;7.70;;;;;;;0.75;100.00;97557.64;52510;1254;1020432;-77
2023/03/05 01:53:33;;;;;;;18.90;8.10;;;;;;;0.79;100.00;97561.92;52506;1254;1074135;-79
2023/03/05 01:55:59;;;;;;;14.40;6.90;;;;;;;0.83;99.55;97559.31;52524;1254;1017040;-77
2023/03/05 01:58:26;;;;;;;16.00;7.30;;;;;;;0.86;99.19;97559.00;52409;1260;1051463;-76
2023/03/05 02:00:52;;;;;;;13.70;6.40;;;;;;;0.89;98.76;97561.00;52489;1254;1018070;-77
2023/03/05 02:03:19;;;;;;;16.00;8.10;;;;;;;0.93;98.45;97559.79;52451;1256;1058037;-77
2023/03/05 02:05:46;;;;;;;14.00;7.20;;;;;;;0.95;98.24;97563.83;52439;1254;1019590;-76
2023/03/05 02:08:16;;;;;;;13.30;7.20;;;;;;;1.01;98.30;97560.65;52510;1254;1073430;-76
2023/03/05 02:10:45;;;;;;;13.10;8.30;;;;;;;1.08;98.37;97563.48;52506;1254;1074520;-76
2023/03/05 02:13:13;;;;;;;13.50;7.10;;;;;;;1.10;97.80;97561.85;52502;1254;1016869;-76
2023/03/05 02:15:40;;;;;;;13.70;7.50;;;;;;;1.09;97.89;97565.02;52403;1254;1016134;-76
2023/03/05 02:18:07;;;;;;;18.20;9.60;;;;;;;1.07;97.89;97567.27;52462;1254;1019706;-76
2023/03/05 02:20:48;;;;;;;16.80;8.50;;;;;;;1.08;97.88;97568.45;52378;1259;1073032;-77
2023/03/05 02:23:15;;;;;;;20.30;9.10;;;;;;;1.07;98.55;97562.55;52458;1254;1071503;-77
2023/03/05 02:25:42;;;;;;;16.90;8.50;;;;;;;1.02;99.02;97563.46;52506;1256;1016399;-76
2023/03/05 02:28:27;;;;;;;17.50;8.10;;;;;;;0.99;99.09;97556.82;52393;1253;1073092;-76
2023/03/05 02:30:54;;;;;;;16.70;9.10;;;;;;;0.97;98.70;97555.86;52518;1256;1071452;-77
2023/03/05 02:33:21;;;;;;;17.10;8.90;;;;;;;0.99;98.85;97556.07;52375;1259;1015717;-77
2023/03/05 02:35:47;;;;;;;15.90;8.80;;;;;;;1.04;98.72;97558.60;52433;1259;1051452;-77
2023/03/05 02:38:16;;;;;;;16.70;8.70;;;;;;;1.00;99.68;97557.38;52455;1254;1016345;-77
2023/03/05 02:40:43;;;;;;;18.70;9.50;;;;;;;0.97;98.95;97558.74;52575;1256;1058445;-77
2023/03/05 02:43:09;;;;;;;16.20;8.10;;;;;;;0.99;98.36;97558.78;52571;1253;1016097;-77
2023/03/05 02:45:37;;;;;;;15.30;7.10;;;;;;;1.03;97.85;97555.90;52460;1254;1076504;-77
2023/03/05 02:48:03;;;;;;;21.90;8.30;;;;;;;1.00;97.54;97555.86;52580;1256;1016143;-77
2023/03/05 02:50:31;;;;;;;17.20;8.10;;;;;;;0.97;97.63;97556.70;52511;1254;1069528;-77
2023/03/05 02:52:57;;;;;;;14.10;8.40;;;;;;;0.97;97.78;97554.20;52520;1253;1016266;-77
2023/03/05 02:55:24;;;;;;;33.90;16.90;;;;;;;0.98;97.72;97554.01;52417;1257;1071510;-77
2023/03/05 02:57:51;;;;;;;24.10;11.10;;;;;;;1.00;97.76;97549.20;52417;1257;1016399;-77
2023/03/05 03:00:18;;;;;;;27.80;14.20;;;;;;;1.01;97.28;97547.52;52456;1254;1053385;-77
2023/03/05 03:02:44;;;;;;;28.70;13.40;;;;;;;0.96;97.55;97549.38;52438;1259;1019633;-78
2023/03/05 03:05:11;;;;;;;25.00;12.30;;;;;;;0.97;97.58;97544.59;52449;1260;1061118;-77
2023/03/05 03:07:37;;;;;;;22.80;12.30;;;;;;;0.98;97.44;97541.90;52422;1254;1016069;-77
2023/03/05 03:10:05;;;;;;;21.60;11.20;;;;;;;0.97;97.31;97538.46;52408;1254;1074394;-77
2023/03/05 03:12:36;;;;;;;22.00;10.00;;;;;;;0.98;97.33;97531.55;52441;1254;1016168;-78
2023/03/05 03:15:03;;;;;;;21.90;11.60;;;;;;;1.00;97.69;97529.88;52475;1259;1069916;-77
2023/03/05 03:17:29;;;;;;;19.00;10.90;;;;;;;1.03;97.60;97521.34;52484;1259;1017949;-77
2023/03/05 03:19:56;;;;;;;23.00;12.50;;;;;;;1.03;97.87;97521.95;52381;1259;1070971;-77
2023/03/05 03:22:23;;;;;;;15.60;10.70;;;;;;;1.04;97.98;97521.73;52452;1254;1016606;-77
2023/03/05 03:24:49;;;;;;;18.80;10.30;;;;;;;1.05;97.51;97522.64;52519;1254;1051324;-77
2023/03/05 03:27:16;;;;;;;17.60;9.80;;;;;;;1.04;97.30;97516.05;52474;1254;1016126;-77
2023/03/05 03:29:43;;;;;;;21.00;10.70;;;;;;;0.97;97.40;97516.48;52511;1254;1058403;-77
2023/03/05 03:32:10;;;;;;;25.10;13.40;;;;;;;0.94;97.33;97512.00;52535;1253;1019017;-77
2023/03/05 03:34:36;;;;;;;28.60;15.80;;;;;;;0.92;97.40;97503.54;52529;1264;1077754;-77
2023/03/05 03:37:03;;;;;;;39.30;17.30;;;;;;;0.78;97.50;97503.87;52521;1254;1016016;-77
2023/03/05 03:39:30;;;;;;;33.20;14.20;;;;;;;0.74;98.55;97503.53;52460;1253;1072143;-77
2023/03/05 03:41:57;;;;;;;29.70;14.80;;;;;;;0.77;99.91;97504.05;52510;1256;1016347;-77
2023/03/05 03:44:23;;;;;;;24.70;14.60;;;;;;;0.80;99.81;97501.83;52493;1254;1073731;-77
2023/03/05 03:46:50;;;;;;;34.20;19.30;;;;;;;0.86;98.94;97499.73;52607;1254;1016397;-77
2023/03/05 03:49:18;;;;;;;29.30;14.80;;;;;;;0.88;99.22;97500.68;52525;1256;1051278;-77
2023/03/05 03:51:46;;;;;;;324.90;129.20;;;;;;;0.93;99.69;97495.66;52582;1256;1016132;-77
2023/03/05 03:54:13;;;;;;;187.70;81.60;;;;;;;0.92;99.33;97487.76;52489;1260;1016570;-77
2023/03/05 03:56:40;;;;;;;64.80;26.60;;;;;;;0.93;99.91;97483.13;52466;1254;1058560;-77
2023/03/05 03:59:07;;;;;;;47.90;20.90;;;;;;;0.92;100.00;97481.72;52416;1254;1016316;-77
2023/03/05 04:01:34;;;;;;;29.60;14.30;;;;;;;0.91;100.00;97484.58;52560;1260;1076214;-77
2023/03/05 04:04:00;;;;;;;24.00;12.60;;;;;;;0.91;99.94;97488.41;52394;1254;1020180;-77
2023/03/05 04:06:27;;;;;;;23.60;12.90;;;;;;;0.89;100.00;97488.00;52392;1254;1073736;-77
2023/03/05 04:08:53;;;;;;;24.40;13.10;;;;;;;0.90;99.99;97483.91;52484;1257;1016258;-77
2023/03/05 04:11:20;;;;;;;23.50;12.70;;;;;;;0.90;99.99;97487.07;52476;1254;1070396;-77
2023/03/05 04:13:47;;;;;;;23.50;11.90;;;;;;;0.93;99.79;97487.39;52431;1255;1016205;-77
2023/03/05 04:16:14;;;;;;;25.30;13.20;;;;;;;0.91;99.76;97485.76;52458;1259;1053277;-77
2023/03/05 04:18:41;;;;;;;30.30;12.90;;;;;;;0.88;99.39;97484.84;52389;1257;1015526;-77
2023/03/05 04:21:07;;;;;;;31.00;14.80;;;;;;;0.89;99.33;97482.61;52475;1259;1058723;-77
2023/03/05 04:23:34;;;;;;;29.80;15.80;;;;;;;0.92;99.65;97479.48;52501;1257;1016088;-77
2023/03/05 04:26:01;;;;;;;41.50;19.90;;;;;;;0.91;100.00;97477.80;52540;1256;1075792;-77
2023/03/05 04:28:27;;;;;;;34.70;16.50;;;;;;;0.88;100.00;97480.09;52542;1254;1019584;-77
2023/03/05 04:30:54;;;;;;;28.90;13.50;;;;;;;0.87;100.00;97478.09;52536;1256;1068783;-77
2023/03/05 04:33:21;;;;;;;26.10;11.40;;;;;;;0.85;100.00;97470.85;52538;1253;1019517;-77
2023/03/05 04:35:47;;;;;;;43.80;15.70;;;;;;;0.84;100.00;97472.67;52650;1257;1071913;-77
2023/03/05 04:38:14;;;;;;;29.70;14.60;;;;;;;0.81;100.00;97469.85;52571;1257;1018588;-77
2023/03/05 04:40:41;;;;;;;29.90;13.00;;;;;;;0.80;100.00;97466.63;52522;1259;1050611;-77
2023/03/05 04:43:07;;;;;;;25.80;13.80;;;;;;;0.78;100.00;97467.48;52546;1256;1016411;-77
2023/03/05 04:45:34;;;;;;;26.70;12.80;;;;;;;0.76;100.00;97468.48;52496;1256;1058701;-77
2023/03/05 04:48:01;;;;;;;25.10;11.70;;;;;;;0.78;100.00;97464.21;52487;1254;1015758;-77
2023/03/05 04:50:27;;;;;;;24.60;11.40;;;;;;;0.78;100.00;97464.44;52533;1254;1073513;-77
2023/03/05 04:52:55;;;;;;;44.40;24.30;;;;;;;0.72;100.00;97466.31;52510;1257;1016242;-77
2023/03/05 04:55:21;;;;;;;26.60;13.30;;;;;;;0.69;100.00;97463.25;52583;1256;1071683;-77
2023/03/05 04:57:48;;;;;;;24.10;10.50;;;;;;;0.70;100.00;97469.25;52477;1257;1015640;-77
2023/03/05 05:00:15;;;;;;;28.20;12.60;;;;;;;0.68;100.00;97465.96;52370;1258;1071249;-76
2023/03/05 05:02:43;;;;;;;63.40;52.80;;;;;;;0.62;100.00;97469.02;52441;1260;1016133;-76
2023/03/05 05:05:11;;;;;;;44.60;36.30;;;;;;;0.62;100.00;97469.85;52443;1253;1050923;-77
2023/03/05 05:07:38;;;;;;;31.20;22.60;;;;;;;0.66;100.00;97458.11;52420;1254;1016198;-77
2023/03/05 05:10:06;;;;;;;30.90;18.20;;;;;;;0.68;100.00;97458.11;52447;1258;1018522;-77
2023/03/05 05:12:33;;;;;;;39.90;18.50;;;;;;;0.71;100.00;97461.37;52563;1254;1058138;-77
2023/03/05 05:15:00;;;;;;;44.90;27.10;;;;;;;0.73;100.00;97460.52;52439;1259;1016315;-76
2023/03/05 05:17:29;;;;;;;60.80;29.40;;;;;;;0.73;100.00;97459.36;52409;1260;1074375;-77
2023/03/05 05:19:56;;;;;;;29.90;15.90;;;;;;;0.69;100.00;97457.13;52433;1259;1016210;-77
2023/03/05 05:22:23;;;;;;;30.20;16.80;;;;;;;0.70;100.00;97456.30;52444;1260;1016530;-76
2023/03/05 05:24:49;;;;;;;28.70;15.40;;;;;;;0.67;100.00;97454.19;52444;1257;1070677;-77
2023/03/05 05:27:16;;;;;;;30.50;15.60;;;;;;;0.65;100.00;97454.03;52404;1263;1020048;-77
2023/03/05 05:29:45;;;;;;;34.60;15.80;;;;;;;0.65;100.00;97461.45;52445;1259;1070897;-77
2023/03/05 05:32:11;;;;;;;28.80;15.30;;;;;;;0.64;100.00;97458.85;52472;1256;1016121;-77
2023/03/05 05:34:38;;;;;;;25.70;14.00;;;;;;;0.61;100.00;97469.16;52423;1260;1016049;-77
2023/03/05 05:37:04;;;;;;;21.50;13.00;;;;;;;0.63;100.00;97461.13;52405;1260;1053880;-76
2023/03/05 05:39:31;;;;;;;22.80;14.20;;;;;;;0.67;100.00;97458.88;52383;1257;1016165;-77
2023/03/05 05:41:58;;;;;;;32.10;13.90;;;;;;;0.69;100.00;97456.92;52375;1260;1058199;-77
2023/03/05 05:44:24;;;;;;;40.60;18.70;;;;;;;0.68;100.00;97451.80;52452;1256;1016067;-76
2023/03/05 05:46:51;;;;;;;35.70;21.50;;;;;;;0.63;100.00;97448.33;52412;1260;1073772;-77
2023/03/05 05:49:18;;;;;;;37.50;20.30;;;;;;;0.57;100.00;97446.65;52426;1261;1016025;-77
2023/03/05 05:51:44;;;;;;;31.80;20.50;;;;;;;0.57;100.00;97446.80;52483;1254;1072278;-76
2023/03/05 05:54:12;;;;;;;33.20;19.40;;;;;;;0.60;100.00;97443.77;52442;1259;1016369;-77
2023/03/05 05:56:39;;;;;;;39.20;20.80;;;;;;;0.54;100.00;97451.91;52449;1254;1071971;-77
2023/03/05 05:59:06;;;;;;;39.30;20.60;;;;;;;0.52;100.00;97452.08;52376;1259;1016140;-76
2023/03/05 06:01:33;;;;;;;41.60;22.10;;;;;;;0.51;100.00;97453.10;52423;1259;1051210;-77
2023/03/05 06:03:59;;;;;;;61.50;27.80;;;;;;;0.55;100.00;97448.16;52421;1259;1015900;-77
2023/03/05 06:06:26;;;;;;;26.50;16.10;;;;;;;0.61;100.00;97448.20;52445;1259;1060968;-77
2023/03/05 06:08:53;;;;;;;34.40;18.90;;;;;;;0.60;100.00;97447.34;52431;1255;1016410;-77
2023/03/05 06:11:20;;;;;;;30.70;15.50;;;;;;;0.59;100.00;97450.73;52497;1260;1076581;-76
2023/03/05 06:13:47;;;;;;;26.20;14.60;;;;;;;0.61;100.00;97450.41;52439;1259;1016297;-77
2023/03/05 06:16:16;;;;;;;32.10;14.80;;;;;;;0.65;100.00;97443.85;52393;1260;1071602;-77
2023/03/05 06:18:43;;;;;;;27.30;14.80;;;;;;;0.72;100.00;97442.14;52460;1259;1016461;-77
2023/03/05 06:21:11;;;;;;;33.10;13.80;;;;;;;0.74;100.00;97443.09;52407;1259;1015815;-77
2023/03/05 06:23:37;;;;;;;25.10;13.50;;;;;;;0.71;100.00;97443.73;52508;1258;1070312;-77
2023/03/05 06:26:05;;;;;;;25.40;14.80;;;;;;;0.72;100.00;97445.02;52507;1266;1016326;-76
2023/03/05 06:28:32;;;;;;;30.30;16.90;;;;;;;0.77;100.00;97444.31;52482;1260;1051952;-77
2023/03/05 06:31:03;;;;;;;33.80;17.60;;;;;;;0.82;100.00;97440.52;52511;1257;1015720;-77
2023/03/05 06:33:31;;;;;;;35.10;19.10;;;;;;;0.88;100.00;97443.07;52460;1254;1058242;-77
2023/03/05 06:35:57;;;;;;;29.30;17.70;;;;;;;0.93;100.00;97440.52;52498;1254;1015517;-77
2023/03/05 06:38:24;;;;;;;29.50;18.90;;;;;;;1.04;100.00;97444.96;52530;1260;1073502;-77
2023/03/05 06:40:51;;;;;;;50.10;29.00;;;;;;;1.06;100.00;97444.48;52521;1255;1016751;-77
2023/03/05 06:43:18;;;;;;;48.20;28.70;;;;;;;1.05;100.00;97444.16;52593;1257;1069343;-76
2023/03/05 06:45:44;;;;;;;34.80;20.10;;;;;;;1.09;100.00;97445.03;52522;1258;1018021;-77
2023/03/05 06:48:11;;;;;;;31.40;17.40;;;;;;;1.08;100.00;97446.12;52495;1254;1070917;-77
2023/03/05 06:50:38;;;;;;;30.70;16.80;;;;;;;1.10;100.00;97443.94;52417;1255;1016492;-77
2023/03/05 06:53:05;;;;;;;27.80;14.20;;;;;;;1.16;100.00;97444.49;52520;1254;1053394;-77
2023/03/05 06:55:38;;;;;;;26.40;15.30;;;;;;;1.12;100.00;97449.41;52405;1253;1016068;-77
2023/03/05 06:58:05;;;;;;;60.40;45.60;;;;;;;1.06;100.00;97450.20;52432;1254;1058684;-78
2023/03/05 07:00:32;;;;;;;49.10;32.90;;;;;;;0.87;100.00;97452.89;52556;1259;1015842;-78
2023/03/05 07:02:59;;;;;;;41.20;30.20;;;;;;;0.57;100.00;97458.01;52530;1255;1073915;-77
2023/03/05 07:05:25;;;;;;;28.50;16.70;;;;;;;0.51;100.00;97464.84;52438;1258;1016449;-77
2023/03/05 07:07:52;;;;;;;27.30;16.60;;;;;;;0.46;100.00;97460.89;52451;1254;1072505;-77
2023/03/05 07:10:19;;;;;;;24.50;15.30;;;;;;;0.49;100.00;97460.42;52454;1254;1015664;-76
2023/03/05 07:12:45;;;;;;;73.10;38.40;;;;;;;0.53;100.00;97456.80;52426;1257;1070938;-77
2023/03/05 07:15:12;;;;;;;96.90;50.40;;;;;;;0.44;100.00;97458.66;52433;1260;1016278;-77
2023/03/05 07:17:39;;;;;;;89.20;46.00;;;;;;;0.54;100.00;97463.52;52472;1267;1051070;-77
2023/03/05 07:20:06;;;;;;;210.10;107.60;;;;;;;0.49;100.00;97462.55;52466;1255;1016358;-77
2023/03/05 07:22:33;;;;;;;117.30;77.60;;;;;;;0.50;100.00;97463.60;52456;1254;1058564;-77
2023/03/05 07:24:59;;;;;;;101.10;77.10;;;;;;;0.49;100.00;97464.73;52478;1254;1016411;-77
2023/03/05 07:27:26;;;;;;;102.10;74.10;;;;;;;0.49;100.00;97461.36;52431;1260;1073747;-77
2023/03/05 07:29:53;;;;;;;124.20;105.80;;;;;;;0.55;100.00;97458.21;52440;1258;1016555;-77
2023/03/05 07:32:19;;;;;;;45.40;26.70;;;;;;;0.59;100.00;97466.10;52485;1260;1071620;-77
2023/03/05 07:34:46;;;;;;;47.00;31.60;;;;;;;0.64;100.00;97461.80;52400;1257;1015913;-76
2023/03/05 07:37:13;;;;;;;39.30;25.00;;;;;;;0.59;100.00;97460.92;52372;1255;1070169;-76
2023/03/05 07:39:39;;;;;;;148.80;126.30;;;;;;;0.49;100.00;97464.36;52449;1257;1018273;-76
2023/03/05 07:42:06;;;;;;;57.80;37.50;;;;;;;0.43;100.00;97463.41;52408;1254;1051444;-77
2023/03/05 07:44:33;;;;;;;70.60;39.20;;;;;;;0.47;100.00;97466.82;52451;1254;1016289;-75
2023/03/05 07:47:00;;;;;;;61.80;32.30;;;;;;;0.47;100.00;97460.90;52405;1254;1060658;-75
2023/03/05 07:49:27;;;;;;;51.30;25.90;;;;;;;0.43;100.00;97461.80;52438;1257;1016055;-76
2023/03/05 07:51:53;;;;;;;49.50;26.10;;;;;;;0.45;100.00;97460.33;52496;1260;1072372;-75
2023/03/05 07:54:20;;;;;;;52.70;28.40;;;;;;;0.45;100.00;97463.20;52444;1257;1016007;-75
2023/03/05 07:56:47;;;;;;;49.50;25.10;;;;;;;0.38;100.00;97460.84;52454;1254;1069491;-76
2023/03/05 07:59:14;;;;;;;59.60;31.70;;;;;;;0.36;100.00;97459.65;52365;1254;1016063;-77
2023/03/05 08:01:41;;;;;;;58.90;30.00;;;;;;;0.31;100.00;97457.72;52409;1257;1073843;-78
2023/03/05 08:04:09;;;;;;;49.00;24.00;;;;;;;0.31;100.00;97451.21;52427;1257;1017662;-75
2023/03/05 08:06:40;;;;;;;33.00;17.80;;;;;;;0.35;100.00;97449.61;52383;1257;1050648;-76
2023/03/05 08:09:06;;;;;;;35.00;17.30;;;;;;;0.43;100.00;97448.11;52461;1254;1053505;-75
2023/03/05 08:11:33;;;;;;;92.30;36.90;;;;;;;0.53;100.00;97438.55;52468;1257;1016099;-76
2023/03/05 08:14:00;;;;;;;59.00;29.10;;;;;;;0.67;100.00;97433.77;52461;1255;1061484;-78
2023/03/05 08:16:26;;;;;;;45.10;24.50;;;;;;;0.74;100.00;97427.09;52466;1254;1016494;-77
2023/03/05 08:18:55;;;;;;;35.60;19.00;;;;;;;0.81;100.00;97428.82;52478;1254;1073927;-76
2023/03/05 08:21:29;;;;;;;35.00;21.20;;;;;;;0.90;100.00;97429.98;52572;1255;1016210;-77
2023/03/05 08:23:56;;;;;;;35.40;19.50;;;;;;;1.03;100.00;97422.11;52469;1254;1074514;-77
2023/03/05 08:26:24;;;;;;;41.00;21.80;;;;;;;1.09;100.00;97420.55;52527;1257;1016335;-77
2023/03/05 08:28:50;;;;;;;34.30;18.80;;;;;;;1.25;100.00;97424.94;52496;1256;1071550;-76
2023/03/05 08:31:18;;;;;;;39.00;21.80;;;;;;;1.35;100.00;97422.31;52527;1254;1015728;-77
2023/03/05 08:33:45;;;;;;;35.50;20.60;;;;;;;1.30;100.00;97419.72;52565;1257;1071687;-76
2023/03/05 08:36:12;;;;;;;40.10;22.10;;;;;;;1.37;100.00;97412.60;52499;1257;1015996;-76
2023/03/05 08:38:39;;;;;;;32.20;18.20;;;;;;;1.48;100.00;97416.13;52555;1254;1054103;-77
2023/03/05 08:41:06;;;;;;;39.20;19.80;;;;;;;1.55;100.00;97412.25;52499;1254;1015674;-77
2023/03/05 08:43:33;;;;;;;35.20;16.50;;;;;;;1.50;100.00;97407.73;52565;1254;1058374;-76
2023/03/05 08:46:00;;;;;;;36.80;22.50;;;;;;;1.52;100.00;97407.00;52514;1254;1015612;-76
2023/03/05 08:48:27;;;;;;;30.80;17.00;;;;;;;1.53;100.00;97400.08;52496;1260;1076574;-77
2023/03/05 08:50:55;;;;;;;39.00;22.80;;;;;;;1.54;100.00;97398.25;52401;1259;1015772;-76
2023/03/05 08:53:22;;;;;;;35.20;18.70;;;;;;;1.48;100.00;97394.13;52588;1257;1069466;-77
2023/03/05 08:55:56;;;;;;;32.10;17.80;;;;;;;1.48;100.00;97397.23;52455;1254;1015740;-77
2023/03/05 08:58:23;;;;;;;33.70;18.30;;;;;;;1.45;100.00;97390.77;52542;1260;1071059;-77
2023/03/05 09:00:49;;;;;;;45.90;22.10;;;;;;;1.48;100.00;97389.95;52436;1258;1016203;-76
2023/03/05 09:03:16;;;;;;;37.10;20.50;;;;;;;1.44;100.00;97385.52;52400;1254;1051327;-76
2023/03/05 09:05:43;;;;;;;59.50;33.40;;;;;;;1.40;100.00;97385.47;52439;1260;1017222;-77
2023/03/05 09:08:09;;;;;;;63.70;35.50;;;;;;;1.33;100.00;97385.70;52466;1258;1058472;-78
2023/03/05 09:10:36;;;;;;;61.50;37.90;;;;;;;1.34;100.00;97380.59;52443;1258;1016041;-77
2023/03/05 09:13:03;;;;;;;63.00;38.80;;;;;;;1.40;100.00;97378.31;52424;1254;1072224;-77
2023/03/05 09:15:30;;;;;;;64.70;36.50;;;;;;;1.54;100.00;97378.54;52445;1254;1016185;-76
2023/03/05 09:17:58;;;;;;;91.10;45.40;;;;;;;1.54;100.00;97375.77;52477;1255;1068705;-76
2023/03/05 09:20:25;;;;;;;61.00;33.90;;;;;;;1.63;100.00;97376.95;52421;1255;1016496;-76
2023/03/05 09:22:51;;;;;;;63.50;36.80;;;;;;;1.71;100.00;97371.71;52494;1255;1017788;-76
2023/03/05 09:25:18;;;;;;;55.90;34.50;;;;;;;1.69;100.00;97367.28;52533;1254;1073133;-77
2023/03/05 09:27:45;;;;;;;47.40;25.80;;;;;;;1.62;100.00;97362.46;52517;1260;1015954;-76
2023/03/05 09:30:12;;;;;;;40.40;24.70;;;;;;;1.62;100.00;97363.73;52539;1254;1053085;-77
2023/03/05 09:32:39;;;;;;;41.70;23.30;;;;;;;1.59;100.00;97361.91;52439;1254;1016339;-77
2023/03/05 09:35:06;;;;;;;37.50;20.20;;;;;;;1.61;100.00;97365.39;52663;1254;1058122;-76
2023/03/05 09:37:33;;;;;;;44.70;24.10;;;;;;;1.65;100.00;97362.37;52554;1257;1016899;-77
2023/03/05 09:39:59;;;;;;;56.60;27.30;;;;;;;1.66;100.00;97357.78;52562;1254;1076530;-77
2023/03/05 09:42:36;;;;;;;51.90;27.80;;;;;;;1.63;100.00;97354.59;52546;1254;1016369;-76
2023/03/05 09:45:06;;;;;;;60.60;31.00;;;;;;;1.67;100.00;97355.13;52446;1254;1069385;-77
2023/03/05 09:47:45;;;;;;;60.80;33.50;;;;;;;1.70;100.00;97355.16;52624;1254;1016442;-76
2023/03/05 09:50:35;;;;;;;58.90;32.30;;;;;;;1.73;100.00;97351.93;52570;1257;1068596;-77
2023/03/05 09:53:06;;;;;;;41.60;26.90;;;;;;;1.67;100.00;97353.31;52543;1257;1069501;-77
2023/03/05 09:55:39;;;;;;;34.40;20.60;;;;;;;1.62;100.00;97353.59;52537;1257;1069568;-76
2023/03/05 09:58:23;;;;;;;40.10;23.00;;;;;;;1.57;100.00;97352.75;52481;1254;1069793;-76
2023/03/05 10:00:53;;;;;;;34.30;18.90;;;;;;;1.55;100.00;97352.56;52416;1254;1072181;-76
2023/03/05 10:03:58;;;;;;;39.80;20.40;;;;;;;1.54;100.00;97349.52;52493;1254;1068187;-76
2023/03/05 10:06:26;;;;;;;38.60;21.30;;;;;;;1.53;100.00;97346.80;52475;1253;1071611;-76
2023/03/05 10:09:20;;;;;;;34.40;18.90;;;;;;;1.50;100.00;97347.27;52455;1254;1018541;-77
2023/03/05 10:12:07;;;;;;;34.90;19.60;;;;;;;1.50;100.00;97348.66;52373;1257;1072169;-76
2023/03/05 10:14:35;;;;;;;34.00;18.80;;;;;;;1.54;100.00;97347.05;52495;1259;1071507;-76
2023/03/05 10:17:17;;;;;;;25.70;13.30;;;;;;;1.55;100.00;97346.95;52491;1257;1019193;-76
2023/03/05 10:19:47;;;;;;;22.30;12.40;;;;;;;1.55;100.00;97345.66;52441;1257;1053936;-76
2023/03/05 10:22:20;;;;;;;22.00;9.80;;;;;;;1.59;100.00;97348.52;52504;1254;1017521;-76
2023/03/05 10:25:22;;;;;;;17.70;8.80;;;;;;;1.70;100.00;97344.61;52442;1257;1050788;-77
2023/03/05 10:28:06;;;;;;;13.40;8.10;;;;;;;1.80;100.00;97341.48;52487;1255;1051157;-78
2023/03/05 10:30:39;;;;;;;16.10;8.50;;;;;;;1.88;100.00;97338.67;52477;1254;1050862;-77
2023/03/05 10:33:10;;;;;;;15.10;8.40;;;;;;;1.94;100.00;97334.77;52513;1257;1051623;-77
2023/03/05 10:35:49;;;;;;;36.10;18.50;;;;;;;2.02;100.00;97333.36;52486;1255;1052457;-78
2023/03/05 10:38:33;;;;;;;40.30;12.10;;;;;;;2.16;100.00;97333.23;52598;1256;1056330;-76
2023/03/05 10:41:03;;;;;;;23.80;12.80;;;;;;;2.24;100.00;97325.98;52568;1256;1051882;-77
2023/03/05 10:43:33;;;;;;;25.30;14.00;;;;;;;2.33;100.00;97324.63;52665;1257;1016471;-77
2023/03/05 10:46:00;;;;;;;43.60;22.80;;;;;;;2.44;100.00;97321.80;52465;1253;1052246;-77
2023/03/05 10:48:35;;;;;;;39.90;22.80;;;;;;;2.45;100.00;97321.76;52527;1259;1016235;-77
2023/03/05 10:51:48;;;;;;;46.30;23.10;;;;;;;2.49;100.00;97317.01;52578;1254;1058228;-77
2023/03/05 10:54:24;;;;;;;35.20;19.50;;;;;;;2.68;100.00;97317.08;52492;1258;1061192;-78
2023/03/05 10:57:02;;;;;;;34.70;18.50;;;;;;;2.81;100.00;97317.20;52559;1254;1061285;-78
2023/03/05 10:59:28;;;;;;;38.60;23.10;;;;;;;2.82;100.00;97316.25;52493;1257;1060639;-77
2023/03/05 11:02:07;;;;;;;35.80;18.80;;;;;;;2.88;100.00;97313.59;52707;1256;1016052;-77
2023/03/05 11:04:38;;;;;;;32.30;17.20;;;;;;;2.91;100.00;97309.69;52727;1253;1074012;-77
2023/03/05 11:07:13;;;;;;;31.00;17.20;;;;;;;2.89;100.00;97307.56;52767;1256;1076170;-77
2023/03/05 11:10:14;;;;;;;28.50;19.20;;;;;;;2.76;100.00;97301.98;52706;1254;1073735;-77